createdAt,value
2019-04-07T00:00:33.150Z,95.50
2019-04-07T00:03:01.712Z,95.70
2019-04-07T00:05:30.346Z,95.70
2019-04-07T00:07:59.166Z,95.80
2019-04-07T00:10:28.658Z,96.00
2019-04-07T00:12:57.347Z,95.80
2019-04-07T00:15:25.987Z,95.90
2019-04-07T00:17:54.632Z,96.00
2019-04-07T00:20:23.724Z,96.10
2019-04-07T00:22:52.327Z,96.20
2019-04-07T00:25:20.977Z,96.30
2019-04-07T00:27:50.240Z,96.40
2019-04-07T00:30:19.079Z,96.30
2019-04-07T00:32:48.279Z,96.30
2019-04-07T00:35:26.914Z,96.50
2019-04-07T00:37:47.407Z,96.50
2019-04-07T00:40:16.095Z,96.80
2019-04-07T00:42:45.511Z,96.70
2019-04-07T00:45:14.168Z,96.70
2019-04-07T00:47:42.723Z,96.50
2019-04-07T00:50:11.940Z,96.50
2019-04-07T00:52:40.472Z,96.70
2019-04-07T00:55:09.110Z,96.70
2019-04-07T00:57:37.659Z,96.80
2019-04-07T01:00:10.702Z,96.70
2019-04-07T01:02:39.849Z,96.70
2019-04-07T01:05:08.840Z,96.70
2019-04-07T01:07:37.358Z,96.60
2019-04-07T01:10:06.181Z,97.00
2019-04-07T01:12:34.733Z,97.00
2019-04-07T01:15:04.347Z,97.10
2019-04-07T01:17:33.327Z,96.90
2019-04-07T01:20:01.887Z,97.30
2019-04-07T01:22:30.931Z,97.50
2019-04-07T01:24:59.774Z,97.90
2019-04-07T01:27:28.578Z,98.20
2019-04-07T01:29:57.231Z,98.40
2019-04-07T01:32:25.801Z,98.50
2019-04-07T01:34:54.767Z,99.20
2019-04-07T01:37:23.312Z,99.60
2019-04-07T01:39:52.644Z,99.90
2019-04-07T01:42:29.058Z,99.90
2019-04-07T01:45:15.771Z,99.90
2019-04-07T01:47:45.961Z,99.90
2019-04-07T01:50:24.912Z,99.90
2019-04-07T01:52:55.367Z,99.90
2019-04-07T01:55:42.149Z,99.90
2019-04-07T01:58:28.521Z,99.90
2019-04-07T02:01:17.375Z,99.90
2019-04-07T02:03:47.608Z,99.30
2019-04-07T02:06:24.410Z,98.90
2019-04-07T02:08:55.552Z,98.70
2019-04-07T02:11:31.737Z,98.70
2019-04-07T02:14:11.223Z,98.70
2019-04-07T02:16:47.355Z,99.20
2019-04-07T02:19:18.228Z,99.80
2019-04-07T02:21:58.359Z,99.80
2019-04-07T02:24:45.320Z,99.60
2019-04-07T02:27:33.585Z,99.30
2019-04-07T02:30:19.955Z,99.00
2019-04-07T02:33:06.663Z,98.90
2019-04-07T02:35:37.793Z,99.20
2019-04-07T02:38:14.507Z,99.50
2019-04-07T02:40:45.891Z,99.60
2019-04-07T02:43:23.278Z,99.60
2019-04-07T02:45:54.275Z,99.80
2019-04-07T02:48:30.240Z,99.90
2019-04-07T02:51:16.752Z,99.90
2019-04-07T02:53:47.232Z,99.80
2019-04-07T02:56:33.748Z,99.90
2019-04-07T02:59:10.104Z,99.90
2019-04-07T03:01:49.738Z,99.90
2019-04-07T03:04:23.115Z,99.90
2019-04-07T03:06:56.843Z,99.90
2019-04-07T03:09:45.006Z,99.70
2019-04-07T03:12:27.600Z,99.70
2019-04-07T03:15:09.395Z,99.70
2019-04-07T03:17:39.688Z,99.80
2019-04-07T03:20:10.049Z,99.90
2019-04-07T03:22:55.099Z,99.90
2019-04-07T03:25:26.057Z,99.90
2019-04-07T03:28:12.722Z,99.90
2019-04-07T03:30:56.592Z,99.90
2019-04-07T03:33:40.750Z,99.60
2019-04-07T03:36:12.795Z,99.60
2019-04-07T03:38:48.289Z,99.50
2019-04-07T03:41:19.581Z,99.50
2019-04-07T03:44:07.619Z,99.90
2019-04-07T03:46:43.944Z,99.90
2019-04-07T03:49:20.057Z,99.70
2019-04-07T03:51:51.394Z,99.90
2019-04-07T03:54:28.314Z,99.20
2019-04-07T03:57:01.327Z,99.20
2019-04-07T03:59:46.659Z,99.20
2019-04-07T04:02:26.466Z,99.20
2019-04-07T04:04:57.548Z,99.30
2019-04-07T04:07:32.370Z,99.60
2019-04-07T04:10:03.486Z,99.60
2019-04-07T04:12:36.147Z,99.60
2019-04-07T04:15:11.479Z,99.80
2019-04-07T04:17:40.152Z,99.80
2019-04-07T04:20:08.794Z,99.90
2019-04-07T04:22:37.952Z,99.90
2019-04-07T04:25:08.492Z,99.80
2019-04-07T04:27:38.771Z,99.70
2019-04-07T04:30:13.491Z,99.90
2019-04-07T04:32:42.082Z,99.70
2019-04-07T04:35:10.928Z,99.70
2019-04-07T04:37:44.207Z,99.60
2019-04-07T04:40:09.775Z,99.60
2019-04-07T04:42:38.377Z,99.10
2019-04-07T04:45:08.400Z,99.40
2019-04-07T04:47:37.700Z,99.60
2019-04-07T04:50:09.695Z,99.90
2019-04-07T04:52:38.471Z,99.90
2019-04-07T04:55:09.922Z,99.90
2019-04-07T04:57:38.476Z,99.90
2019-04-07T05:00:07.895Z,99.90
2019-04-07T05:02:36.435Z,99.90
2019-04-07T05:05:09.256Z,99.90
2019-04-07T05:07:49.887Z,99.90
2019-04-07T05:10:08.345Z,99.90
2019-04-07T05:12:37.020Z,99.90
2019-04-07T05:15:08.107Z,99.90
2019-04-07T05:17:36.970Z,99.90
2019-04-07T05:20:06.840Z,99.90
2019-04-07T05:22:36.776Z,99.90
2019-04-07T05:25:07.026Z,99.90
2019-04-07T05:27:35.719Z,99.90
2019-04-07T05:30:07.573Z,99.80
2019-04-07T05:32:36.833Z,99.70
2019-04-07T05:35:07.831Z,99.40
2019-04-07T05:37:36.705Z,99.50
2019-04-07T05:40:05.967Z,99.10
2019-04-07T05:42:34.566Z,99.20
2019-04-07T05:45:04.103Z,99.40
2019-04-07T05:47:33.051Z,99.60
2019-04-07T05:50:03.295Z,99.70
2019-04-07T05:52:33.513Z,99.60
2019-04-07T05:55:02.712Z,99.90
2019-04-07T05:57:34.675Z,99.70
2019-04-07T06:00:02.638Z,99.90
2019-04-07T06:02:32.585Z,99.50
2019-04-07T06:05:01.577Z,99.90
2019-04-07T06:07:31.548Z,99.90
2019-04-07T06:10:01.013Z,99.20
2019-04-07T06:12:29.559Z,98.50
2019-04-07T06:14:58.530Z,97.70
2019-04-07T06:17:27.731Z,96.90
2019-04-07T06:19:57.706Z,96.30
2019-04-07T06:22:26.356Z,95.80
2019-04-07T06:24:54.929Z,95.30
2019-04-07T06:27:24.009Z,94.90
2019-04-07T06:29:57.186Z,94.90
2019-04-07T06:32:23.473Z,93.70
2019-04-07T06:34:53.021Z,92.50
2019-04-07T06:37:25.792Z,90.80
2019-04-07T06:39:52.515Z,86.30
2019-04-07T06:42:21.998Z,84.70
2019-04-07T06:44:51.985Z,81.70
2019-04-07T06:47:35.446Z,79.20
2019-04-07T06:50:25.849Z,75.90
2019-04-07T06:53:17.315Z,75.40
2019-04-07T06:55:43.957Z,68.40
2019-04-07T06:58:24.317Z,60.50
2019-04-07T07:01:10.102Z,56.70
2019-04-07T07:03:57.518Z,54.90
2019-04-07T07:06:34.081Z,53.60
2019-04-07T07:09:04.649Z,49.90
2019-04-07T07:11:38.473Z,48.00
2019-04-07T07:14:31.427Z,46.10
2019-04-07T07:16:51.074Z,46.40
2019-04-07T07:19:26.356Z,44.90
2019-04-07T07:22:10.067Z,44.00
2019-04-07T07:24:34.926Z,42.50
2019-04-07T07:27:07.231Z,41.60
2019-04-07T07:29:33.853Z,40.40
2019-04-07T07:32:03.898Z,40.30
2019-04-07T07:34:32.671Z,39.00
2019-04-07T07:37:01.309Z,38.60
2019-04-07T07:39:30.549Z,38.50
2019-04-07T07:41:59.386Z,38.90
2019-04-07T07:44:27.979Z,38.10
2019-04-07T07:46:57.087Z,39.30
2019-04-07T07:49:25.846Z,37.60
2019-04-07T07:51:54.560Z,36.60
2019-04-07T07:54:23.355Z,35.50
2019-04-07T07:56:52.535Z,33.50
2019-04-07T07:59:24.990Z,32.90
2019-04-07T08:01:54.528Z,33.30
2019-04-07T08:04:26.420Z,34.20
2019-04-07T08:06:53.556Z,35.60
2019-04-07T08:09:24.809Z,35.50
2019-04-07T08:11:54.382Z,34.10
2019-04-07T08:14:24.241Z,33.20
2019-04-07T08:16:53.128Z,31.60
2019-04-07T08:19:24.949Z,30.40
2019-04-07T08:21:52.959Z,30.00
2019-04-07T08:24:21.868Z,27.80
2019-04-07T08:26:50.469Z,28.00
2019-04-07T08:29:19.157Z,28.10
2019-04-07T08:31:51.490Z,27.70
2019-04-07T08:34:18.899Z,28.20
2019-04-07T08:36:48.173Z,28.30
2019-04-07T08:39:22.669Z,28.80
2019-04-07T08:41:47.245Z,28.60
2019-04-07T08:44:16.141Z,28.30
2019-04-07T08:46:45.428Z,28.30
2019-04-07T08:49:14.173Z,28.60
2019-04-07T08:51:42.773Z,28.30
2019-04-07T08:54:13.825Z,27.40
2019-04-07T08:56:42.109Z,27.30
2019-04-07T08:59:13.905Z,27.00
2019-04-07T09:01:41.594Z,27.40
2019-04-07T09:04:10.973Z,27.20
2019-04-07T09:06:39.703Z,25.40
2019-04-07T09:09:09.064Z,24.80
2019-04-07T09:11:40.344Z,24.30
2019-04-07T09:14:08.695Z,24.40
2019-04-07T09:16:57.928Z,23.00
2019-04-07T09:19:27.133Z,23.30
2019-04-07T09:22:03.650Z,22.60
2019-04-07T09:24:53.151Z,21.80
2019-04-07T09:27:41.022Z,22.20
2019-04-07T09:30:11.627Z,21.80
2019-04-07T09:32:53.451Z,21.80
2019-04-07T09:35:39.970Z,22.10
2019-04-07T09:38:12.903Z,22.30
2019-04-07T09:40:52.758Z,21.70
2019-04-07T09:43:40.313Z,21.10
2019-04-07T09:46:20.223Z,21.50
2019-04-07T09:48:52.700Z,21.00
2019-04-07T09:51:22.783Z,21.20
2019-04-07T09:54:13.338Z,20.70
2019-04-07T09:57:03.400Z,20.40
2019-04-07T09:59:43.403Z,20.60
2019-04-07T10:02:18.665Z,20.40
2019-04-07T10:05:05.083Z,20.20
2019-04-07T10:07:48.897Z,20.40
2019-04-07T10:10:25.101Z,21.50
2019-04-07T10:12:55.504Z,21.00
2019-04-07T10:15:25.663Z,20.60
2019-04-07T10:18:12.166Z,20.90
2019-04-07T10:20:48.148Z,21.30
2019-04-07T10:23:18.345Z,22.50
2019-04-07T10:25:54.025Z,24.10
2019-04-07T10:28:33.279Z,25.10
2019-04-07T10:31:04.693Z,25.30
2019-04-07T10:33:35.709Z,26.20
2019-04-07T10:36:15.908Z,27.30
2019-04-07T10:39:03.173Z,28.40
2019-04-07T10:41:51.655Z,29.30
2019-04-07T10:44:24.949Z,29.50
2019-04-07T10:47:13.449Z,30.60
2019-04-07T10:50:04.985Z,31.70
2019-04-07T10:52:50.328Z,31.60
2019-04-07T10:55:37.922Z,32.80
2019-04-07T10:58:20.856Z,33.10
2019-04-07T11:01:08.989Z,33.20
2019-04-07T11:03:41.981Z,32.70
2019-04-07T11:06:29.462Z,33.30
2019-04-07T11:09:14.423Z,32.70
2019-04-07T11:11:47.032Z,32.40
2019-04-07T11:14:17.148Z,34.20
2019-04-07T11:17:06.422Z,35.50
2019-04-07T11:19:43.344Z,37.60
2019-04-07T11:22:30.811Z,38.30
2019-04-07T11:25:03.674Z,38.60
2019-04-07T11:27:36.628Z,39.00
2019-04-07T11:30:09.650Z,39.00
2019-04-07T11:32:40.268Z,37.80
2019-04-07T11:35:28.764Z,39.40
2019-04-07T11:38:13.638Z,39.90
2019-04-07T11:40:50.736Z,40.10
2019-04-07T11:43:35.850Z,41.20
2019-04-07T11:46:11.971Z,40.90
2019-04-07T11:48:43.164Z,39.80
2019-04-07T11:51:14.056Z,40.30
2019-04-07T11:53:44.348Z,40.00
2019-04-07T11:56:32.437Z,39.50
2019-04-07T11:59:02.690Z,39.90
2019-04-07T12:01:32.882Z,40.90
2019-04-07T12:04:05.853Z,41.30
2019-04-07T12:06:42.083Z,41.80
2019-04-07T12:09:18.102Z,43.60
2019-04-07T12:11:51.078Z,43.90
2019-04-07T12:14:33.861Z,43.10
2019-04-07T12:17:20.936Z,44.80
2019-04-07T12:19:58.148Z,44.90
2019-04-07T12:22:34.703Z,43.90
2019-04-07T12:25:14.207Z,45.10
2019-04-07T12:27:45.191Z,44.80
2019-04-07T12:30:31.608Z,44.60
2019-04-07T12:33:14.038Z,45.70
2019-04-07T12:35:44.818Z,46.70
2019-04-07T12:38:31.868Z,46.60
2019-04-07T12:41:13.463Z,47.90
2019-04-07T12:43:36.619Z,47.20
2019-04-07T12:46:10.092Z,48.60
2019-04-07T12:48:41.091Z,48.70
2019-04-07T12:51:14.924Z,48.60
2019-04-07T12:53:48.958Z,50.60
2019-04-07T12:56:22.220Z,51.00
2019-04-07T12:59:08.999Z,51.20
2019-04-07T13:01:41.329Z,50.50
2019-04-07T13:04:12.168Z,51.90
2019-04-07T13:06:58.808Z,52.50
2019-04-07T13:09:32.014Z,51.40
2019-04-07T13:12:20.294Z,52.30
2019-04-07T13:14:50.727Z,52.80
2019-04-07T13:17:24.923Z,52.40
2019-04-07T13:20:11.853Z,52.60
2019-04-07T13:22:42.216Z,51.00
2019-04-07T13:25:18.663Z,53.10
2019-04-07T13:28:03.179Z,51.80
2019-04-07T13:30:36.561Z,53.00
2019-04-07T13:33:13.989Z,53.60
2019-04-07T13:36:02.095Z,53.30
2019-04-07T13:38:34.863Z,53.10
2019-04-07T13:41:08.393Z,52.50
2019-04-07T13:43:42.190Z,51.10
2019-04-07T13:46:33.715Z,49.90
2019-04-07T13:49:09.734Z,50.30
2019-04-07T13:51:40.921Z,49.20
2019-04-07T13:54:24.311Z,48.30
2019-04-07T13:56:57.402Z,48.30
2019-04-07T13:59:30.587Z,48.20
2019-04-07T14:02:14.200Z,49.00
2019-04-07T14:04:47.837Z,48.40
2019-04-07T14:07:21.894Z,48.20
2019-04-07T14:10:01.454Z,48.70
2019-04-07T14:12:32.257Z,49.40
2019-04-07T14:15:02.835Z,49.60
2019-04-07T14:17:33.285Z,50.40
2019-04-07T14:20:16.156Z,50.70
2019-04-07T14:22:46.589Z,50.10
2019-04-07T14:25:16.844Z,51.10
2019-04-07T14:27:53.702Z,51.90
2019-04-07T14:30:38.649Z,51.10
2019-04-07T14:33:25.427Z,51.50
2019-04-07T14:36:11.791Z,52.60
2019-04-07T14:38:43.091Z,51.90
2019-04-07T14:41:30.171Z,53.00
2019-04-07T14:44:00.412Z,52.60
2019-04-07T14:46:40.200Z,52.60
2019-04-07T14:49:13.466Z,52.60
2019-04-07T14:51:42.761Z,52.50
2019-04-07T14:54:28.216Z,52.70
2019-04-07T14:56:58.707Z,53.00
2019-04-07T14:59:31.883Z,54.80
2019-04-07T15:02:02.025Z,55.10
2019-04-07T15:04:32.403Z,54.90
2019-04-07T15:07:18.912Z,55.70
2019-04-07T15:09:52.429Z,56.00
2019-04-07T15:12:25.210Z,55.50
2019-04-07T15:14:52.909Z,55.00
2019-04-07T15:17:22.038Z,54.40
2019-04-07T15:19:51.331Z,55.10
2019-04-07T15:22:22.615Z,57.00
2019-04-07T15:24:51.431Z,55.60
2019-04-07T15:27:23.629Z,57.00
2019-04-07T15:29:51.337Z,58.30
2019-04-07T15:32:24.337Z,58.60
2019-04-07T15:34:50.270Z,56.40
2019-04-07T15:37:21.573Z,56.00
2019-04-07T15:39:49.470Z,56.10
2019-04-07T15:42:33.944Z,55.70
2019-04-07T15:44:48.423Z,56.90
2019-04-07T15:47:17.982Z,57.20
2019-04-07T15:49:47.050Z,57.50
2019-04-07T15:52:16.299Z,57.50
2019-04-07T15:54:44.898Z,57.80
2019-04-07T15:57:13.564Z,57.50
2019-04-07T15:59:42.515Z,58.20
2019-04-07T16:02:12.455Z,58.60
2019-04-07T16:04:42.111Z,57.70
2019-04-07T16:07:12.189Z,57.00
2019-04-07T16:09:51.102Z,57.60
2019-04-07T16:12:11.062Z,57.70
2019-04-07T16:14:44.894Z,57.80
2019-04-07T16:17:11.996Z,58.40
2019-04-07T16:19:44.033Z,58.50
2019-04-07T16:22:12.476Z,58.60
2019-04-07T16:24:41.671Z,57.80
2019-04-07T16:27:10.976Z,56.90
2019-04-07T16:29:39.802Z,56.80
2019-04-07T16:32:09.255Z,57.20
2019-04-07T16:34:41.040Z,57.10
2019-04-07T16:37:08.331Z,57.60
2019-04-07T16:39:37.553Z,57.80
2019-04-07T16:42:06.438Z,57.70
2019-04-07T16:44:36.819Z,57.70
2019-04-07T16:47:16.601Z,57.10
2019-04-07T16:49:35.874Z,57.30
2019-04-07T16:52:05.514Z,57.70
2019-04-07T16:54:34.403Z,57.90
2019-04-07T16:57:03.234Z,58.00
2019-04-07T16:59:32.739Z,58.50
2019-04-07T17:02:01.327Z,60.00
2019-04-07T17:04:30.067Z,59.20
2019-04-07T17:07:03.389Z,59.40
2019-04-07T17:09:29.354Z,59.20
2019-04-07T17:11:57.995Z,59.50
2019-04-07T17:14:31.107Z,60.00
2019-04-07T17:16:56.912Z,59.90
2019-04-07T17:19:26.757Z,59.80
2019-04-07T17:21:55.850Z,60.60
2019-04-07T17:24:27.793Z,60.20
2019-04-07T17:26:55.026Z,60.40
2019-04-07T17:29:28.382Z,62.80
2019-04-07T17:31:58.617Z,60.40
2019-04-07T17:34:26.670Z,60.50
2019-04-07T17:36:56.295Z,60.80
2019-04-07T17:39:26.657Z,60.60
2019-04-07T17:41:57.321Z,61.10
2019-04-07T17:44:33.961Z,60.80
2019-04-07T17:47:04.413Z,61.30
2019-04-07T17:49:40.775Z,60.20
2019-04-07T17:52:27.530Z,61.00
2019-04-07T17:55:14.048Z,61.10
2019-04-07T17:57:53.275Z,61.30
2019-04-07T18:00:30.152Z,62.00
2019-04-07T18:03:05.314Z,62.00
2019-04-07T18:05:38.736Z,62.50
2019-04-07T18:08:15.845Z,63.10
2019-04-07T18:10:46.544Z,63.70
2019-04-07T18:13:17.107Z,64.60
2019-04-07T18:15:51.691Z,64.80
2019-04-07T18:18:25.378Z,64.70
2019-04-07T18:20:59.628Z,66.20
2019-04-07T18:23:30.066Z,65.90
2019-04-07T18:26:06.299Z,66.30
2019-04-07T18:28:52.766Z,66.60
2019-04-07T18:31:40.053Z,67.30
2019-04-07T18:34:08.538Z,68.10
2019-04-07T18:36:55.394Z,70.70
2019-04-07T18:39:42.987Z,76.40
2019-04-07T18:42:32.872Z,78.90
2019-04-07T18:45:04.010Z,82.00
2019-04-07T18:47:40.438Z,85.10
2019-04-07T18:50:26.196Z,87.00
2019-04-07T18:53:12.496Z,89.40
2019-04-07T18:55:46.373Z,90.00
2019-04-07T18:58:17.073Z,90.80
2019-04-07T19:01:06.578Z,91.30
2019-04-07T19:03:38.696Z,91.70
2019-04-07T19:06:16.529Z,92.00
2019-04-07T19:09:02.180Z,92.40
2019-04-07T19:11:32.447Z,92.70
2019-04-07T19:14:33.532Z,92.90
2019-04-07T19:17:08.532Z,93.10
2019-04-07T19:19:42.005Z,93.30
2019-04-07T19:22:20.063Z,93.60
2019-04-07T19:25:05.146Z,93.80
2019-04-07T19:27:40.621Z,93.80
2019-04-07T19:30:28.451Z,94.10
2019-04-07T19:33:16.337Z,94.30
2019-04-07T19:36:03.129Z,94.50
2019-04-07T19:38:43.259Z,94.70
2019-04-07T19:41:19.938Z,94.80
2019-04-07T19:43:54.347Z,94.90
2019-04-07T19:46:28.800Z,95.20
2019-04-07T19:49:16.694Z,95.20
2019-04-07T19:51:47.280Z,95.50
2019-04-07T19:54:21.418Z,96.30
2019-04-07T19:56:54.859Z,96.00
2019-04-07T19:59:42.999Z,96.10
2019-04-07T20:02:25.445Z,96.20
2019-04-07T20:04:56.974Z,96.20
2019-04-07T20:07:33.469Z,96.50
2019-04-07T20:10:06.713Z,96.60
2019-04-07T20:12:42.499Z,96.50
2019-04-07T20:15:17.617Z,96.60
2019-04-07T20:17:54.842Z,96.50
2019-04-07T20:20:43.223Z,96.60
2019-04-07T20:23:30.992Z,96.60
2019-04-07T20:26:10.074Z,96.60
2019-04-07T20:28:46.452Z,96.50
2019-04-07T20:31:19.486Z,96.80
2019-04-07T20:34:02.235Z,96.40
2019-04-07T20:36:32.358Z,96.90
2019-04-07T20:39:09.166Z,96.80
2019-04-07T20:41:52.502Z,96.70
2019-04-07T20:44:35.643Z,96.50
2019-04-07T20:47:23.111Z,96.40
2019-04-07T20:50:12.488Z,96.70
2019-04-07T20:52:55.866Z,96.60
2019-04-07T20:55:25.982Z,96.50
2019-04-07T20:58:12.271Z,96.60
2019-04-07T21:00:58.352Z,96.60
2019-04-07T21:03:33.792Z,96.80
2019-04-07T21:06:07.034Z,96.80
2019-04-07T21:08:37.720Z,96.90
2019-04-07T21:11:08.217Z,97.50
2019-04-07T21:13:38.469Z,97.20
2019-04-07T21:16:08.864Z,97.20
2019-04-07T21:18:40.274Z,97.50
2019-04-07T21:21:12.189Z,97.40
2019-04-07T21:23:43.302Z,97.20
2019-04-07T21:26:19.702Z,97.20
2019-04-07T21:28:52.828Z,97.40
2019-04-07T21:31:23.020Z,97.40
2019-04-07T21:34:02.483Z,97.70
2019-04-07T21:36:40.520Z,97.50
2019-04-07T21:39:10.675Z,97.60
2019-04-07T21:41:45.174Z,97.60
2019-04-07T21:44:15.561Z,97.60
2019-04-07T21:47:02.262Z,97.60
2019-04-07T21:49:34.769Z,97.40
2019-04-07T21:52:04.651Z,97.60
2019-04-07T21:54:44.068Z,97.50
2019-04-07T21:57:15.145Z,97.60
2019-04-07T21:59:48.072Z,97.70
2019-04-07T22:02:18.266Z,97.70
2019-04-07T22:04:56.596Z,97.80
2019-04-07T22:07:31.554Z,97.70
2019-04-07T22:10:00.526Z,97.60
2019-04-07T22:12:30.299Z,97.70
2019-04-07T22:15:00.262Z,97.80
2019-04-07T22:17:32.645Z,97.50
2019-04-07T22:19:59.090Z,97.40
2019-04-07T22:22:27.741Z,97.50
2019-04-07T22:24:56.307Z,97.60
2019-04-07T22:27:27.198Z,97.40
2019-04-07T22:29:55.084Z,97.40
2019-04-07T22:32:24.382Z,97.40
2019-04-07T22:34:53.012Z,97.40
2019-04-07T22:37:22.462Z,97.30
2019-04-07T22:39:52.755Z,97.30
2019-04-07T22:42:22.386Z,97.30
2019-04-07T22:44:53.698Z,97.20
2019-04-07T22:47:22.633Z,97.70
2019-04-07T22:49:52.668Z,97.30
2019-04-07T22:52:21.324Z,97.40
2019-04-07T22:54:49.896Z,97.70
2019-04-07T22:57:18.507Z,97.30
2019-04-07T22:59:48.251Z,97.30
2019-04-07T23:02:17.073Z,97.50
2019-04-07T23:04:46.822Z,97.70
2019-04-07T23:07:15.921Z,97.60
2019-04-07T23:09:45.408Z,97.70
2019-04-07T23:12:14.739Z,97.70
2019-04-07T23:14:44.246Z,97.70
2019-04-07T23:17:12.835Z,97.70
2019-04-07T23:19:41.974Z,97.80
2019-04-07T23:22:11.672Z,97.90
2019-04-07T23:24:41.091Z,98.00
2019-04-07T23:27:10.392Z,97.90
2019-04-07T23:29:39.066Z,97.90
2019-04-07T23:32:07.607Z,98.00
2019-04-07T23:34:36.325Z,98.20
2019-04-07T23:37:06.004Z,98.00
2019-04-07T23:39:34.544Z,98.00
2019-04-07T23:42:03.110Z,98.20
2019-04-07T23:44:31.947Z,98.40
2019-04-07T23:47:00.963Z,98.50
2019-04-07T23:49:30.069Z,98.60
2019-04-07T23:51:59.431Z,98.70
2019-04-07T23:54:28.900Z,98.80
2019-04-07T23:56:58.167Z,99.10
2019-04-07T23:59:27.168Z,99.40
